Time;durP1;ratioP1;P1;durP2;ratioP2;P2;SDS_P1;SDS_P2;PMS_P1;PMS_P2;Temp;Humidity;BMP_temperature;BMP_pressure;BME280_temperature;BME280_humidity;BME280_pressure;Samples;Min_cycle;Max_cycle;Signal;HPM_P1;HPM_P2
2022/10/23 00:00:52;;;;;;;66.55;26.63;;;10.20;99.90;;;;;;5047572;28;20049;-53
2022/10/23 00:03:18;;;;;;;51.22;24.25;;;9.90;99.90;;;;;;5047616;28;20102;-53
2022/10/23 00:05:44;;;;;;;61.90;27.20;;;9.90;99.90;;;;;;5046342;28;20040;-54
2022/10/23 00:08:09;;;;;;;60.28;25.70;;;10.50;99.90;;;;;;5049809;28;20078;-50
2022/10/23 00:10:39;;;;;;;53.03;25.13;;;9.90;99.90;;;;;;5051466;28;20041;-53
2022/10/23 00:13:04;;;;;;;48.65;24.40;;;9.90;99.90;;;;;;5051611;28;20464;-53
2022/10/23 00:15:31;;;;;;;51.83;26.92;;;10.00;99.90;;;;;;5051730;28;20047;-54
2022/10/23 00:17:56;;;;;;;45.15;25.02;;;11.20;99.90;;;;;;5051688;28;20251;-54
2022/10/23 00:20:22;;;;;;;60.40;27.73;;;10.50;99.90;;;;;;5051350;28;20174;-54
2022/10/23 00:22:48;;;;;;;60.60;27.17;;;10.00;99.90;;;;;;5051131;28;20143;-54
2022/10/23 00:25:15;;;;;;;56.35;25.70;;;10.30;99.90;;;;;;5051245;28;20052;-53
2022/10/23 00:27:40;;;;;;;65.65;28.05;;;10.70;99.90;;;;;;5051972;28;20041;-54
2022/10/23 00:30:07;;;;;;;61.50;27.23;;;10.10;99.90;;;;;;5050988;28;20059;-52
2022/10/23 00:32:32;;;;;;;78.38;30.13;;;9.90;99.90;;;;;;5051249;28;20058;-53
2022/10/23 00:34:58;;;;;;;60.53;27.88;;;10.00;99.90;;;;;;5067077;28;20056;-52
2022/10/23 00:37:24;;;;;;;74.95;30.02;;;10.10;99.90;;;;;;5071125;28;20438;-54
2022/10/23 00:39:49;;;;;;;61.35;28.98;;;9.90;99.90;;;;;;5071067;28;20552;-53
2022/10/23 00:42:17;;;;;;;63.75;31.15;;;9.90;99.90;;;;;;5071017;28;20082;-53
2022/10/23 00:44:43;;;;;;;60.38;28.40;;;10.90;99.90;;;;;;5071707;28;20040;-53
2022/10/23 00:47:09;;;;;;;66.03;29.67;;;9.90;99.90;;;;;;5071786;28;20040;-53
2022/10/23 00:49:35;;;;;;;66.15;29.80;;;9.90;99.90;;;;;;5071378;28;20387;-53
2022/10/23 00:52:04;;;;;;;63.45;29.70;;;10.50;99.90;;;;;;5070499;28;20495;-54
2022/10/23 00:54:36;;;;;;;65.95;30.92;;;9.90;99.90;;;;;;5070609;28;20049;-53
2022/10/23 00:57:03;;;;;;;;;;;9.80;99.90;;;;;;5071172;28;20084;-54
2022/10/23 00:59:30;;;;;;;69.30;30.27;;;9.90;99.90;;;;;;5070804;28;19931;-53
2022/10/23 01:01:57;;;;;;;80.53;33.22;;;9.80;99.90;;;;;;5070994;28;20050;-54
2022/10/23 01:04:23;;;;;;;65.85;31.08;;;9.80;99.90;;;;;;5068837;28;20404;-48
2022/10/23 01:07:12;;;;;;;78.65;34.15;;;10.00;99.90;;;;;;5070099;28;20036;-52
2022/10/23 01:10:02;;;;;;;89.47;34.50;;;9.70;99.90;;;;;;5069598;28;20499;-60
2022/10/23 01:13:02;;;;;;;84.22;33.13;;;9.70;99.90;;;;;;5069021;28;20036;-58
2022/10/23 01:15:32;;;;;;;80.35;33.25;;;9.70;99.90;;;;;;5071285;28;20050;-56
2022/10/23 01:18:38;;;;;;;74.40;31.95;;;9.90;99.90;;;;;;5072494;28;20037;-53
2022/10/23 01:21:46;;;;;;;78.35;32.30;;;9.50;99.90;;;;;;5058993;28;20053;-52
2022/10/23 01:24:49;;;;;;;93.75;33.35;;;9.60;99.90;;;;;;5059321;28;20045;-53
2022/10/23 01:27:33;;;;;;;86.97;32.55;;;9.60;99.90;;;;;;5069812;28;20514;-53
2022/10/23 01:30:11;;;;;;;61.28;28.55;;;9.50;99.90;;;;;;5069767;28;20067;-54
2022/10/23 01:33:03;;;;;;;70.88;29.88;;;9.50;99.90;;;;;;5070009;28;20119;-53
2022/10/23 01:35:47;;;;;;;55.17;27.65;;;9.50;99.90;;;;;;5029938;28;20060;-53
2022/10/23 01:38:39;;;;;;;63.97;29.98;;;9.60;99.90;;;;;;5028372;28;20055;-54
2022/10/23 01:41:19;;;;;;;56.85;27.85;;;9.60;99.90;;;;;;5024629;28;20061;-53
2022/10/23 01:43:48;;;;;;;68.30;29.90;;;9.60;99.90;;;;;;5030332;28;20119;-53
2022/10/23 01:46:16;;;;;;;84.70;33.17;;;10.60;99.90;;;;;;5030431;28;20063;-54
2022/10/23 01:48:50;;;;;;;74.50;31.63;;;9.70;99.90;;;;;;5030400;28;20120;-52
2022/10/23 01:51:17;;;;;;;88.13;32.17;;;9.60;99.90;;;;;;5029746;28;20056;-54
2022/10/23 01:53:46;;;;;;;71.88;30.48;;;9.50;99.90;;;;;;5029486;28;20095;-53
2022/10/23 01:56:19;;;;;;;53.75;27.85;;;10.60;99.90;;;;;;5029240;28;20056;-54
2022/10/23 01:58:48;;;;;;;81.60;32.15;;;9.70;99.90;;;;;;5029444;28;20046;-53
2022/10/23 02:01:16;;;;;;;54.83;28.58;;;9.70;99.90;;;;;;5030030;28;20043;-53
2022/10/23 02:03:43;;;;;;;53.72;27.92;;;10.10;99.90;;;;;;5029622;28;20051;-52
2022/10/23 02:06:09;;;;;;;94.88;34.75;;;9.90;99.90;;;;;;5029755;28;20120;-53
2022/10/23 02:08:35;;;;;;;75.95;32.72;;;10.30;99.90;;;;;;5028836;28;20183;-51
2022/10/23 02:11:08;;;;;;;54.78;29.88;;;9.90;99.90;;;;;;5029040;28;20452;-52
2022/10/23 02:13:38;;;;;;;65.22;29.40;;;11.00;99.90;;;;;;5028632;28;20033;-53
2022/10/23 02:16:33;;;;;;;57.72;29.52;;;10.00;99.90;;;;;;5029276;28;20037;-53
2022/10/23 02:19:02;;;;;;;49.30;26.70;;;10.10;99.90;;;;;;5028710;28;20049;-53
2022/10/23 02:21:37;;;;;;;49.78;27.23;;;10.80;99.90;;;;;;5028436;28;20041;-53
2022/10/23 02:24:13;;;;;;;65.57;29.30;;;10.00;99.90;;;;;;5029160;28;20121;-53
2022/10/23 02:26:45;;;;;;;52.20;28.67;;;10.10;99.90;;;;;;5029037;28;20041;-53
2022/10/23 02:29:14;;;;;;;43.53;26.95;;;10.20;99.90;;;;;;5029098;28;20061;-54
2022/10/23 02:31:39;;;;;;;50.97;26.88;;;10.20;99.90;;;;;;5028700;28;20496;-53
2022/10/23 02:34:05;;;;;;;54.40;27.15;;;10.20;99.90;;;;;;5046264;28;20076;-52
2022/10/23 02:36:31;;;;;;;53.85;26.80;;;10.50;99.90;;;;;;5068452;28;20055;-53
2022/10/23 02:38:57;;;;;;;53.05;27.42;;;10.30;99.90;;;;;;5068429;28;20048;-54
2022/10/23 02:41:56;;;;;;;51.08;27.58;;;10.30;99.90;;;;;;5068947;28;20402;-54
2022/10/23 02:44:58;;;;;;;53.63;25.73;;;10.20;99.90;;;;;;5102453;28;20055;-54
2022/10/23 02:47:45;;;;;;;47.53;25.90;;;10.20;99.90;;;;;;5065630;28;20049;-54
2022/10/23 02:50:48;;;;;;;55.20;28.85;;;10.20;99.90;;;;;;5068836;28;20052;-54
2022/10/23 02:53:17;;;;;;;44.28;27.13;;;10.20;99.90;;;;;;5068065;28;20051;-53
2022/10/23 02:56:17;;;;;;;48.42;25.95;;;10.20;99.90;;;;;;5068376;28;20082;-54
2022/10/23 02:58:46;;;;;;;43.47;24.80;;;10.20;99.90;;;;;;5066925;28;20495;-54
2022/10/23 03:01:18;;;;;;;43.60;24.77;;;10.50;99.90;;;;;;5068258;28;20148;-53
2022/10/23 03:03:51;;;;;;;48.63;24.88;;;10.20;99.90;;;;;;5068382;28;20119;-53
2022/10/23 03:06:17;;;;;;;51.25;26.17;;;10.20;99.90;;;;;;5068406;28;20063;-53
2022/10/23 03:08:47;;;;;;;46.95;24.70;;;10.20;99.90;;;;;;5068126;28;20495;-53
2022/10/23 03:11:13;;;;;;;51.38;26.35;;;10.20;99.90;;;;;;5067931;28;20495;-54
2022/10/23 03:13:39;;;;;;;54.90;26.52;;;10.20;99.90;;;;;;5066639;28;20041;-53
2022/10/23 03:16:04;;;;;;;50.28;26.95;;;10.20;99.90;;;;;;5068310;28;20040;-53
2022/10/23 03:18:30;;;;;;;50.70;25.95;;;10.20;99.90;;;;;;5067712;28;20044;-53
2022/10/23 03:20:56;;;;;;;50.10;24.77;;;10.20;99.90;;;;;;5067954;28;20037;-53
2022/10/23 03:23:21;;;;;;;45.35;24.60;;;10.20;99.90;;;;;;5068055;28;20059;-54
2022/10/23 03:25:47;;;;;;;51.40;26.00;;;10.30;99.90;;;;;;5066955;28;20055;-54
2022/10/23 03:28:13;;;;;;;44.83;26.13;;;10.20;99.90;;;;;;5068031;28;20048;-52
2022/10/23 03:30:38;;;;;;;63.17;29.15;;;10.10;99.90;;;;;;5067477;28;20060;-53
2022/10/23 03:33:04;;;;;;;42.90;24.00;;;10.10;99.90;;;;;;5067950;28;20119;-53
2022/10/23 03:35:30;;;;;;;69.25;29.52;;;10.00;99.90;;;;;;5048523;28;20050;-54
2022/10/23 03:37:55;;;;;;;47.97;24.10;;;10.00;99.90;;;;;;5046404;28;20055;-54
2022/10/23 03:40:21;;;;;;;46.03;25.75;;;10.00;99.90;;;;;;5047859;28;20571;-54
2022/10/23 03:42:47;;;;;;;41.25;24.27;;;9.90;99.90;;;;;;5047275;28;20040;-53
2022/10/23 03:45:12;;;;;;;44.28;23.77;;;9.90;99.90;;;;;;5048239;28;20083;-55
2022/10/23 03:47:40;;;;;;;47.28;24.63;;;9.90;99.90;;;;;;5047556;28;20098;-54
2022/10/23 03:50:07;;;;;;;51.05;25.15;;;9.90;99.90;;;;;;5047758;28;20295;-54
2022/10/23 03:52:33;;;;;;;41.60;24.65;;;9.80;99.90;;;;;;5047583;28;20487;-50
2022/10/23 03:54:58;;;;;;;45.78;24.25;;;9.80;99.90;;;;;;5047402;28;20124;-55
2022/10/23 03:57:24;;;;;;;48.80;26.10;;;10.40;99.90;;;;;;5047052;28;20446;-53
2022/10/23 03:59:50;;;;;;;44.05;23.77;;;9.80;99.90;;;;;;5047135;28;20053;-53
2022/10/23 04:02:16;;;;;;;48.75;25.17;;;9.80;99.90;;;;;;5046323;28;20103;-53
2022/10/23 04:04:42;;;;;;;56.33;26.17;;;9.80;99.90;;;;;;5047207;28;20396;-54
2022/10/23 04:07:07;;;;;;;52.08;25.58;;;9.80;99.90;;;;;;5047253;28;20052;-53
2022/10/23 04:09:33;;;;;;;53.70;28.35;;;10.60;99.90;;;;;;5047107;28;20068;-53
2022/10/23 04:11:59;;;;;;;63.03;29.67;;;9.80;99.90;;;;;;5046801;28;20226;-53
2022/10/23 04:14:25;;;;;;;50.97;24.83;;;9.70;99.90;;;;;;5046604;28;20049;-53
2022/10/23 04:16:50;;;;;;;65.75;27.08;;;9.70;99.90;;;;;;5047083;28;20045;-53
2022/10/23 04:19:16;;;;;;;76.22;29.67;;;9.60;99.90;;;;;;5047204;28;20044;-53
2022/10/23 04:21:43;;;;;;;67.38;29.13;;;9.50;99.90;;;;;;5047460;28;20498;-52
2022/10/23 04:24:08;;;;;;;45.35;25.48;;;9.60;99.90;;;;;;5047274;28;20047;-52
2022/10/23 04:26:34;;;;;;;54.75;25.58;;;9.50;99.90;;;;;;5047298;28;20045;-53
2022/10/23 04:29:00;;;;;;;55.25;26.60;;;9.40;99.90;;;;;;5046572;28;20041;-53
2022/10/23 04:31:25;;;;;;;49.50;25.20;;;9.90;99.90;;;;;;5046883;28;20119;-53
2022/10/23 04:33:51;;;;;;;51.25;26.40;;;9.80;99.90;;;;;;5047342;28;20041;-54
2022/10/23 04:36:17;;;;;;;49.70;25.40;;;9.60;99.90;;;;;;5047074;28;20057;-52
2022/10/23 04:38:42;;;;;;;60.45;27.15;;;9.60;99.90;;;;;;5047095;28;20045;-53
2022/10/23 04:41:08;;;;;;;51.28;23.65;;;9.90;99.90;;;;;;5047140;28;20051;-53
2022/10/23 04:43:34;;;;;;;44.50;24.73;;;10.60;99.90;;;;;;5047317;28;20045;-52
2022/10/23 04:46:00;;;;;;;50.95;26.23;;;9.60;99.90;;;;;;5047205;28;20065;-53
2022/10/23 04:48:25;;;;;;;43.78;25.92;;;9.60;99.90;;;;;;5047079;28;20044;-52
2022/10/23 04:50:56;;;;;;;49.13;25.73;;;10.00;99.90;;;;;;5046828;28;20045;-53
2022/10/23 04:53:22;;;;;;;48.53;26.60;;;9.60;99.90;;;;;;5046938;28;20040;-52
2022/10/23 04:55:49;;;;;;;45.75;25.35;;;9.60;99.90;;;;;;5050213;28;20103;-52
2022/10/23 04:58:15;;;;;;;44.83;25.70;;;9.60;99.90;;;;;;5050345;28;20056;-53
2022/10/23 05:00:40;;;;;;;51.15;26.40;;;9.60;99.90;;;;;;5050427;28;20049;-54
2022/10/23 05:03:06;;;;;;;77.30;31.40;;;9.60;99.90;;;;;;5050618;28;20040;-53
2022/10/23 05:05:32;;;;;;;71.13;31.52;;;10.40;99.90;;;;;;5050299;28;20480;-53
2022/10/23 05:07:57;;;;;;;45.50;25.95;;;9.60;99.90;;;;;;5050360;28;20472;-53
2022/10/23 05:10:23;;;;;;;45.22;25.90;;;9.70;99.90;;;;;;5050165;28;20504;-52
2022/10/23 05:12:48;;;;;;;51.65;26.60;;;9.60;99.90;;;;;;5050102;28;20068;-52
2022/10/23 05:15:14;;;;;;;53.47;26.38;;;10.10;99.90;;;;;;5048930;28;20056;-54
2022/10/23 05:17:42;;;;;;;44.47;26.10;;;9.50;99.90;;;;;;5050344;28;20535;-52
2022/10/23 05:20:12;;;;;;;55.95;28.88;;;9.90;99.90;;;;;;5049545;28;20045;-52
2022/10/23 05:22:40;;;;;;;48.60;26.42;;;9.40;99.90;;;;;;5049881;28;20095;-53
2022/10/23 05:25:06;;;;;;;48.25;26.65;;;9.50;99.90;;;;;;5049582;28;20555;-52
2022/10/23 05:27:32;;;;;;;61.33;28.17;;;9.40;99.90;;;;;;5049633;28;20484;-53
2022/10/23 05:29:58;;;;;;;51.75;28.13;;;10.20;99.90;;;;;;5049266;28;20110;-53
2022/10/23 05:32:26;;;;;;;50.83;26.27;;;9.40;99.90;;;;;;5049646;28;20037;-51
2022/10/23 05:34:52;;;;;;;51.92;27.70;;;9.70;99.90;;;;;;5064429;28;20086;-53
2022/10/23 05:37:18;;;;;;;49.72;26.00;;;9.30;99.90;;;;;;5069364;28;20616;-53
2022/10/23 05:39:44;;;;;;;57.63;26.70;;;9.90;99.90;;;;;;5069578;28;20040;-53
2022/10/23 05:42:09;;;;;;;54.30;27.60;;;9.40;99.90;;;;;;5069020;28;20043;-52
2022/10/23 05:44:35;;;;;;;52.25;27.65;;;10.30;99.90;;;;;;5070137;28;20483;-53
2022/10/23 05:47:01;;;;;;;62.75;29.23;;;9.20;99.90;;;;;;5070241;28;20377;-53
2022/10/23 05:49:27;;;;;;;63.72;28.70;;;9.40;99.90;;;;;;5069654;28;20123;-53
2022/10/23 05:51:52;;;;;;;47.28;25.25;;;9.30;99.90;;;;;;5069492;28;20403;-53
2022/10/23 05:54:18;;;;;;;52.28;25.88;;;10.10;99.90;;;;;;5069478;28;20465;-53
2022/10/23 05:56:44;;;;;;;44.90;23.92;;;9.30;99.90;;;;;;5069074;28;20047;-52
2022/10/23 05:59:09;;;;;;;56.00;26.95;;;9.80;99.90;;;;;;5068953;28;20067;-53
2022/10/23 06:01:36;;;;;;;48.40;25.55;;;9.40;99.90;;;;;;5070011;28;20036;-53
2022/10/23 06:04:03;;;;;;;45.33;25.00;;;9.50;99.90;;;;;;5069272;28;20443;-53
2022/10/23 06:06:29;;;;;;;46.53;25.80;;;9.50;99.90;;;;;;5069006;28;20562;-53
2022/10/23 06:08:54;;;;;;;41.75;24.25;;;9.80;99.90;;;;;;5069008;28;20072;-51
2022/10/23 06:11:20;;;;;;;43.47;24.70;;;10.50;99.90;;;;;;5069087;28;20125;-53
2022/10/23 06:13:47;;;;;;;45.67;24.40;;;9.40;99.90;;;;;;5069417;28;20048;-53
2022/10/23 06:16:18;;;;;;;48.38;26.58;;;9.40;99.90;;;;;;5101342;28;20055;-53
2022/10/23 06:18:45;;;;;;;44.87;24.43;;;9.80;99.90;;;;;;5068747;28;20036;-53
2022/10/23 06:21:11;;;;;;;44.35;23.88;;;9.60;99.90;;;;;;5068736;28;20049;-53
2022/10/23 06:23:38;;;;;;;49.47;26.20;;;9.60;99.90;;;;;;5068424;28;20549;-53
2022/10/23 06:26:06;;;;;;;49.42;26.40;;;10.60;99.90;;;;;;5068339;28;20044;-53
2022/10/23 06:28:32;;;;;;;46.10;25.33;;;9.60;99.90;;;;;;5068580;28;20036;-53
2022/10/23 06:30:58;;;;;;;46.58;24.80;;;10.00;99.90;;;;;;5068301;28;20091;-52
2022/10/23 06:33:23;;;;;;;43.65;24.83;;;9.80;99.90;;;;;;5065645;28;20107;-53
2022/10/23 06:35:49;;;;;;;44.95;24.40;;;9.60;99.90;;;;;;5048752;28;20052;-54
2022/10/23 06:38:15;;;;;;;43.08;23.42;;;9.60;99.90;;;;;;5047150;28;20052;-53
2022/10/23 06:40:40;;;;;;;41.20;24.10;;;9.70;99.90;;;;;;5048033;28;20538;-52
2022/10/23 06:43:07;;;;;;;44.72;23.08;;;9.70;99.90;;;;;;5048505;28;20102;-53
2022/10/23 06:45:34;;;;;;;46.13;24.70;;;9.70;99.90;;;;;;5048816;28;20396;-52
2022/10/23 06:48:00;;;;;;;45.00;24.77;;;9.80;99.90;;;;;;5048433;28;20055;-53
2022/10/23 06:50:26;;;;;;;39.55;24.80;;;9.70;99.90;;;;;;5048526;28;20392;-52
2022/10/23 06:52:53;;;;;;;48.05;24.13;;;9.80;99.90;;;;;;5047979;28;20045;-53
2022/10/23 06:55:19;;;;;;;50.00;24.30;;;9.80;99.90;;;;;;5047714;28;20447;-54
2022/10/23 06:57:45;;;;;;;45.80;23.33;;;10.80;99.90;;;;;;5048144;28;20094;-53
2022/10/23 07:00:11;;;;;;;43.83;22.95;;;9.90;99.90;;;;;;5048058;28;20037;-53
2022/10/23 07:02:37;;;;;;;43.67;22.70;;;9.90;99.90;;;;;;5048382;28;20488;-52
2022/10/23 07:05:03;;;;;;;43.40;24.45;;;10.40;99.90;;;;;;5046438;28;20076;-53
2022/10/23 07:07:29;;;;;;;40.70;22.33;;;10.00;99.90;;;;;;5029775;28;20051;-54
2022/10/23 07:09:55;;;;;;;42.17;23.45;;;10.00;99.90;;;;;;5047907;28;20502;-53
2022/10/23 07:12:21;;;;;;;43.42;23.52;;;10.00;99.90;;;;;;5047477;28;20037;-53
2022/10/23 07:14:47;;;;;;;38.58;23.92;;;10.00;99.90;;;;;;5047431;28;20581;-53
2022/10/23 07:17:12;;;;;;;45.42;21.70;;;10.90;99.90;;;;;;5047112;28;20084;-52
2022/10/23 07:19:38;;;;;;;38.80;20.45;;;10.10;99.90;;;;;;5047712;28;20045;-53
2022/10/23 07:22:04;;;;;;;36.17;20.00;;;10.10;99.90;;;;;;5047737;28;20103;-53
2022/10/23 07:24:30;;;;;;;43.08;22.27;;;10.20;99.90;;;;;;5047750;28;20041;-52
2022/10/23 07:26:57;;;;;;;34.78;19.63;;;11.00;99.90;;;;;;5047606;28;20551;-52
2022/10/23 07:29:23;;;;;;;36.90;20.08;;;10.40;99.90;;;;;;5047571;28;20049;-53
2022/10/23 07:31:48;;;;;;;34.00;19.45;;;10.20;99.90;;;;;;5047860;28;20053;-53
2022/10/23 07:34:14;;;;;;;43.90;21.27;;;10.20;99.90;;;;;;5057395;28;20126;-54
2022/10/23 07:36:40;;;;;;;27.70;18.08;;;10.30;99.90;;;;;;5067832;28;20145;-53
2022/10/23 07:39:06;;;;;;;32.05;19.13;;;10.30;99.90;;;;;;5067367;28;20071;-53
2022/10/23 07:41:31;;;;;;;31.27;17.63;;;10.40;99.90;;;;;;5067473;28;20426;-53
2022/10/23 07:43:57;;;;;;;36.95;19.33;;;10.30;99.90;;;;;;5068182;28;20040;-52
2022/10/23 07:46:23;;;;;;;29.33;17.58;;;10.40;99.90;;;;;;5064028;28;20037;-54
2022/10/23 07:48:48;;;;;;;30.70;17.67;;;10.50;99.90;;;;;;5047349;28;20045;-54
2022/10/23 07:51:15;;;;;;;31.75;16.95;;;11.00;99.90;;;;;;5044996;28;20041;-53
2022/10/23 07:53:41;;;;;;;26.60;17.05;;;10.50;99.90;;;;;;5047235;28;20041;-53
2022/10/23 07:56:21;;;;;;;32.33;18.58;;;10.60;99.90;;;;;;5046717;28;20103;-53
2022/10/23 07:58:49;;;;;;;36.22;20.85;;;10.70;99.90;;;;;;5047274;28;20112;-53
2022/10/23 08:01:22;;;;;;;39.15;20.73;;;11.10;99.90;;;;;;5046729;28;20033;-54
2022/10/23 08:03:48;;;;;;;37.47;20.63;;;10.90;99.90;;;;;;5046728;28;20041;-53
2022/10/23 08:06:13;;;;;;;32.90;18.52;;;11.20;99.90;;;;;;5046896;28;20063;-53
2022/10/23 08:08:39;;;;;;;31.02;18.10;;;11.00;99.90;;;;;;5047084;28;20051;-52
2022/10/23 08:11:05;;;;;;;30.40;19.13;;;11.30;99.90;;;;;;5046716;28;20361;-54
2022/10/23 08:13:31;;;;;;;29.50;17.63;;;11.10;99.90;;;;;;5044460;28;20514;-54
2022/10/23 08:15:57;;;;;;;26.27;15.82;;;11.10;99.90;;;;;;5046928;28;20769;-52
2022/10/23 08:18:23;;;;;;;21.60;14.88;;;11.20;99.90;;;;;;5046802;28;20040;-54
2022/10/23 08:20:51;;;;;;;33.28;17.75;;;11.20;99.90;;;;;;5045164;28;20492;-53
2022/10/23 08:23:17;;;;;;;30.75;18.17;;;11.30;99.90;;;;;;5046564;28;20391;-54
2022/10/23 08:25:44;;;;;;;28.60;17.33;;;11.80;99.90;;;;;;5047046;28;20439;-52
2022/10/23 08:28:09;;;;;;;27.58;18.00;;;11.40;99.90;;;;;;5047588;28;20033;-53
2022/10/23 08:30:36;;;;;;;29.20;16.65;;;11.50;99.90;;;;;;5050687;28;20510;-54
2022/10/23 08:33:03;;;;;;;27.88;17.75;;;11.60;99.90;;;;;;5050602;28;20048;-53
2022/10/23 08:35:29;;;;;;;33.25;17.67;;;11.70;99.90;;;;;;5050736;28;20120;-54
2022/10/23 08:37:55;;;;;;;25.02;15.05;;;11.80;99.90;;;;;;5050973;28;20135;-53
2022/10/23 08:40:24;;;;;;;29.50;16.00;;;11.80;99.90;;;;;;5050295;28;20053;-54
2022/10/23 08:43:10;;;;;;;25.40;14.10;;;11.90;99.90;;;;;;5050857;28;20068;-52
2022/10/23 08:45:44;;;;;;;21.50;12.38;;;12.00;99.90;;;;;;5048917;28;20044;-53
2022/10/23 08:48:23;;;;;;;20.45;12.40;;;12.10;99.90;;;;;;5050886;28;20033;-53
2022/10/23 08:50:55;;;;;;;22.65;11.55;;;12.10;99.90;;;;;;5050607;28;20041;-53
2022/10/23 08:53:28;;;;;;;17.98;10.38;;;12.10;99.90;;;;;;5049660;28;20095;-53
2022/10/23 08:56:15;;;;;;;21.13;11.20;;;12.20;99.90;;;;;;5047274;28;20108;-53
2022/10/23 08:58:48;;;;;;;16.52;10.85;;;12.40;99.90;;;;;;5046954;28;20041;-52
2022/10/23 09:01:31;;;;;;;15.93;8.77;;;12.50;99.90;;;;;;5047279;28;20041;-53
2022/10/23 09:03:57;;;;;;;18.95;8.90;;;12.50;99.90;;;;;;5046385;28;20045;-53
2022/10/23 09:06:47;;;;;;;14.35;9.10;;;12.60;99.90;;;;;;5049953;28;20047;-53
2022/10/23 09:09:21;;;;;;;16.80;9.48;;;12.70;99.90;;;;;;5046936;28;20052;-54
2022/10/23 09:12:06;;;;;;;14.90;8.63;;;12.80;99.90;;;;;;5049658;28;20424;-54
2022/10/23 09:14:53;;;;;;;13.57;7.50;;;12.90;99.90;;;;;;5045119;28;20130;-53
2022/10/23 09:17:25;;;;;;;11.73;7.93;;;12.90;99.90;;;;;;5047556;28;20041;-53
2022/10/23 09:20:18;;;;;;;14.40;7.60;;;13.00;99.90;;;;;;5049444;28;20068;-53
2022/10/23 09:22:45;;;;;;;10.73;7.47;;;13.10;99.90;;;;;;5048260;28;20036;-54
2022/10/23 09:25:18;;;;;;;18.00;8.30;;;13.20;99.90;;;;;;5049172;28;20052;-53
2022/10/23 09:27:49;;;;;;;16.65;8.43;;;13.30;99.90;;;;;;5048350;28;20033;-53
2022/10/23 09:30:44;;;;;;;17.63;7.82;;;13.40;99.90;;;;;;5048865;28;20061;-53
2022/10/23 09:33:22;;;;;;;10.57;6.43;;;13.50;99.90;;;;;;5051090;28;20084;-53
2022/10/23 09:36:13;;;;;;;10.75;6.75;;;13.60;99.90;;;;;;5046865;28;20940;-54
2022/10/23 09:38:45;;;;;;;12.88;6.10;;;13.60;99.90;;;;;;5051023;28;20487;-52
2022/10/23 09:41:22;;;;;;;9.95;5.50;;;13.80;99.90;;;;;;5050704;28;20045;-53
2022/10/23 09:43:59;;;;;;;10.15;5.30;;;13.70;99.90;;;;;;5051915;28;20480;-52
2022/10/23 09:46:39;;;;;;;13.70;5.55;;;13.80;99.90;;;;;;5050866;28;20388;-54
2022/10/23 09:49:06;;;;;;;10.60;5.13;;;13.90;99.90;;;;;;5053010;28;20044;-53
2022/10/23 09:51:32;;;;;;;11.73;5.32;;;14.00;99.90;;;;;;5050725;28;20044;-56
2022/10/23 09:53:59;;;;;;;9.57;6.25;;;13.90;99.90;;;;;;5020260;28;20515;-58
2022/10/23 09:56:29;;;;;;;10.48;4.75;;;14.10;99.90;;;;;;5047990;28;20056;-57
2022/10/23 09:59:02;;;;;;;10.52;4.82;;;14.20;99.90;;;;;;5045707;28;20049;-59
2022/10/23 10:01:45;;;;;;;10.88;4.68;;;14.20;99.90;;;;;;5045640;28;20049;-56
2022/10/23 10:04:10;;;;;;;11.50;4.93;;;14.30;99.90;;;;;;5027920;28;20095;-56
2022/10/23 10:06:36;;;;;;;9.63;5.22;;;14.40;99.90;;;;;;5045732;28;20040;-54
2022/10/23 10:09:09;;;;;;;14.05;5.28;;;14.50;99.90;;;;;;5045910;28;20043;-55
2022/10/23 10:11:53;;;;;;;9.93;6.45;;;14.60;99.90;;;;;;5046055;28;20059;-54
2022/10/23 10:14:33;;;;;;;12.45;5.88;;;14.70;99.90;;;;;;5045536;28;20041;-55
2022/10/23 10:17:13;;;;;;;10.25;6.65;;;14.90;99.90;;;;;;5046223;28;20043;-42
2022/10/23 10:19:53;;;;;;;10.25;5.85;;;15.10;99.90;;;;;;5026033;28;20041;-40
2022/10/23 10:22:34;;;;;;;11.45;5.03;;;15.20;99.90;;;;;;5035877;28;20041;-43
2022/10/23 10:25:09;;;;;;;9.32;5.28;;;15.40;99.90;;;;;;5041249;28;20461;-42
2022/10/23 10:27:46;;;;;;;10.90;5.05;;;15.50;99.90;;;;;;5041355;28;20033;-41
2022/10/23 10:30:18;;;;;;;10.10;4.97;;;15.60;99.90;;;;;;5039640;28;20057;-40
2022/10/23 10:33:33;;;;;;;7.25;4.43;;;15.60;99.90;;;;;;5038912;28;20048;-45
2022/10/23 10:36:12;;;;;;;12.07;5.60;;;15.70;99.90;;;;;;5015269;28;20111;-40
2022/10/23 10:38:50;;;;;;;9.55;4.85;;;15.80;99.90;;;;;;5038707;28;20120;-47
2022/10/23 10:41:15;;;;;;;11.05;4.82;;;15.80;99.90;;;;;;5038394;28;20076;-46
2022/10/23 10:43:56;;;;;;;7.22;4.45;;;15.80;99.90;;;;;;5038302;28;20108;-47
2022/10/23 10:46:47;;;;;;;9.40;5.00;;;15.90;99.90;;;;;;5037987;28;20044;-48
2022/10/23 10:49:23;;;;;;;7.55;3.75;;;16.00;99.90;;;;;;5035481;28;20046;-46
2022/10/23 10:52:38;;;;;;;8.80;3.25;;;16.00;99.90;;;;;;5035824;28;20033;-44
2022/10/23 10:55:31;;;;;;;11.10;3.17;;;16.00;99.90;;;;;;5002502;28;20060;-46
2022/10/23 10:58:01;;;;;;;6.68;2.88;;;16.00;99.90;;;;;;5017075;28;20045;-45
2022/10/23 11:00:30;;;;;;;6.43;2.90;;;15.80;99.90;;;;;;5018421;28;20077;-44
2022/10/23 11:03:01;;;;;;;10.82;3.30;;;16.00;99.90;;;;;;5021555;28;20033;-42
2022/10/23 11:05:30;;;;;;;4.20;2.33;;;16.00;99.90;;;;;;5018893;28;20040;-42
2022/10/23 11:08:12;;;;;;;8.35;3.95;;;16.00;99.90;;;;;;5016736;28;20041;-41
2022/10/23 11:10:48;;;;;;;6.28;2.92;;;16.00;99.90;;;;;;5017900;28;20045;-43
2022/10/23 11:13:25;;;;;;;9.73;3.47;;;16.00;99.90;;;;;;5018584;28;20068;-42
2022/10/23 11:15:54;;;;;;;8.02;3.10;;;16.00;99.90;;;;;;5019259;28;20044;-41
2022/10/23 11:18:25;;;;;;;6.65;2.90;;;16.00;99.90;;;;;;5016486;28;20539;-42
2022/10/23 11:20:57;;;;;;;6.38;2.90;;;16.10;99.90;;;;;;5017048;28;20044;-41
2022/10/23 11:23:41;;;;;;;9.80;2.97;;;16.10;99.90;;;;;;5019226;28;20041;-42
2022/10/23 11:26:25;;;;;;;6.25;2.85;;;16.10;99.90;;;;;;5018366;28;20639;-44
2022/10/23 11:28:54;;;;;;;9.10;2.65;;;16.00;99.90;;;;;;5015576;28;20056;-43
2022/10/23 11:31:42;;;;;;;6.85;2.88;;;16.00;99.90;;;;;;5028745;28;20133;-43
2022/10/23 11:34:36;;;;;;;8.57;3.15;;;16.00;99.90;;;;;;5016796;28;20045;-41
2022/10/23 11:37:05;;;;;;;7.68;2.88;;;15.90;99.90;;;;;;5017563;28;20072;-43
2022/10/23 11:39:33;;;;;;;7.82;2.75;;;15.90;99.90;;;;;;5015629;28;20095;-42
2022/10/23 11:42:13;;;;;;;12.63;3.42;;;16.10;99.90;;;;;;5027391;28;20144;-45
2022/10/23 11:44:44;;;;;;;7.22;2.85;;;15.90;99.90;;;;;;5029782;28;20056;-46
2022/10/23 11:47:37;;;;;;;9.70;2.87;;;15.90;99.90;;;;;;5029176;28;20042;-45
2022/10/23 11:50:05;;;;;;;11.75;4.18;;;15.90;99.90;;;;;;5028962;28;20049;-44
2022/10/23 11:52:32;;;;;;;7.03;2.88;;;15.80;99.90;;;;;;5029165;28;20057;-46
2022/10/23 11:55:03;;;;;;;6.78;2.58;;;15.70;99.90;;;;;;5027722;28;20077;-45
2022/10/23 11:57:29;;;;;;;6.78;2.67;;;15.70;99.90;;;;;;5029036;28;20108;-44
2022/10/23 11:59:56;;;;;;;8.35;2.58;;;16.00;99.90;;;;;;5028347;28;20524;-46
2022/10/23 12:02:33;;;;;;;7.45;2.60;;;15.60;99.90;;;;;;5029177;28;20080;-45
2022/10/23 12:05:05;;;;;;;7.47;3.00;;;15.70;99.90;;;;;;5032103;28;20037;-46
2022/10/23 12:07:37;;;;;;;5.05;2.40;;;15.70;99.90;;;;;;5032666;28;20037;-45
2022/10/23 12:10:25;;;;;;;;;;;15.60;99.90;;;;;;5033171;28;20041;-46
2022/10/23 12:12:59;;;;;;;4.75;2.47;;;15.70;99.90;;;;;;5032798;28;19927;-44
2022/10/23 12:15:25;;;;;;;5.72;3.28;;;15.70;99.90;;;;;;5032223;28;20049;-44
2022/10/23 12:17:54;;;;;;;8.82;2.85;;;15.70;99.90;;;;;;5031739;28;20470;-45
2022/10/23 12:20:54;;;;;;;8.77;3.00;;;15.70;99.90;;;;;;5031783;28;20507;-45
2022/10/23 12:23:41;;;;;;;6.90;2.80;;;16.10;99.90;;;;;;5032305;28;20049;-45
2022/10/23 12:26:12;;;;;;;9.02;3.30;;;15.80;99.90;;;;;;5032367;28;20041;-46
2022/10/23 12:29:18;;;;;;;9.97;3.60;;;15.90;99.90;;;;;;5032587;28;20172;-45
2022/10/23 12:31:51;;;;;;;6.43;3.42;;;15.90;99.90;;;;;;5030372;28;20389;-45
2022/10/23 12:34:37;;;;;;;7.40;3.10;;;15.90;99.90;;;;;;5031527;28;20128;-44
2022/10/23 12:37:05;;;;;;;10.60;2.63;;;16.00;99.90;;;;;;5031546;28;20045;-44
2022/10/23 12:39:38;;;;;;;7.22;2.97;;;16.00;99.90;;;;;;5032294;28;20389;-45
2022/10/23 12:42:14;;;;;;;8.18;2.80;;;16.10;99.90;;;;;;5032679;28;20033;-45
2022/10/23 12:44:40;;;;;;;10.85;3.05;;;16.10;99.90;;;;;;5032340;28;20041;-44
2022/10/23 12:47:05;;;;;;;6.85;2.95;;;16.20;99.90;;;;;;5031917;28;20140;-46
2022/10/23 12:49:33;;;;;;;9.55;2.85;;;16.20;99.90;;;;;;5031832;28;20053;-45
2022/10/23 12:52:03;;;;;;;10.30;2.78;;;16.20;99.90;;;;;;5031858;28;20045;-46
2022/10/23 12:54:38;;;;;;;6.13;2.20;;;16.30;99.90;;;;;;5031267;28;20107;-45
2022/10/23 12:57:20;;;;;;;9.73;2.58;;;16.30;99.90;;;;;;5031643;28;20463;-45